createdAt,value
2019-05-01T00:01:21.677Z,100.00
2019-05-01T00:04:18.836Z,100.00
2019-05-01T00:06:51.549Z,100.00
2019-05-01T00:09:22.275Z,100.00
2019-05-01T00:11:52.805Z,100.00
2019-05-01T00:14:23.262Z,100.00
2019-05-01T00:16:54.680Z,100.00
2019-05-01T00:19:25.080Z,100.00
2019-05-01T00:21:57.155Z,100.00
2019-05-01T00:24:27.448Z,100.00
2019-05-01T00:26:59.512Z,100.00
2019-05-01T00:29:30.134Z,100.00
2019-05-01T00:32:01.295Z,100.00
2019-05-01T00:34:31.587Z,100.00
2019-05-01T00:37:01.978Z,100.00
2019-05-01T00:39:32.294Z,100.00
2019-05-01T00:42:02.582Z,100.00
2019-05-01T00:44:32.927Z,100.00
2019-05-01T00:47:03.226Z,100.00
2019-05-01T00:49:33.575Z,100.00
2019-05-01T00:52:04.124Z,100.00
2019-05-01T00:54:36.087Z,100.00
2019-05-01T00:57:16.892Z,100.00
2019-05-01T01:03:00.981Z,100.00
2019-05-01T01:05:31.252Z,100.00
2019-05-01T01:08:02.146Z,100.00
2019-05-01T01:10:32.498Z,100.00
2019-05-01T01:13:02.918Z,100.00
2019-05-01T01:15:33.273Z,100.00
2019-05-01T01:18:03.664Z,100.00
2019-05-01T01:20:34.211Z,100.00
2019-05-01T01:23:04.841Z,100.00
2019-05-01T01:25:35.744Z,100.00
2019-05-01T01:28:06.350Z,100.00
2019-05-01T01:30:37.061Z,100.00
2019-05-01T01:33:07.450Z,100.00
2019-05-01T01:35:38.608Z,100.00
2019-05-01T01:38:08.955Z,100.00
2019-05-01T01:40:39.564Z,100.00
2019-05-01T01:43:27.870Z,100.00
2019-05-01T01:46:00.271Z,100.00
2019-05-01T01:48:30.998Z,100.00
2019-05-01T01:51:01.854Z,100.00
2019-05-01T01:53:35.444Z,100.00
2019-05-01T01:56:05.960Z,100.00
2019-05-01T01:58:38.271Z,100.00
2019-05-01T02:01:39.294Z,100.00
2019-05-01T02:04:28.739Z,100.00
2019-05-01T02:06:59.671Z,100.00
2019-05-01T02:09:30.250Z,100.00
2019-05-01T02:12:05.131Z,100.00
2019-05-01T02:14:38.716Z,100.00
2019-05-01T02:17:09.189Z,100.00
2019-05-01T02:19:40.740Z,100.00
2019-05-01T02:22:11.378Z,100.00
2019-05-01T02:24:41.597Z,100.00
2019-05-01T02:27:17.529Z,100.00
2019-05-01T02:29:52.657Z,100.00
2019-05-01T02:32:26.126Z,100.00
2019-05-01T02:34:58.073Z,100.00
2019-05-01T02:37:31.266Z,100.00
2019-05-01T02:40:06.681Z,100.00
2019-05-01T02:42:40.898Z,100.00
2019-05-01T02:45:11.730Z,100.00
2019-05-01T02:47:45.552Z,100.00
2019-05-01T02:50:16.538Z,100.00
2019-05-01T02:52:47.075Z,100.00
2019-05-01T02:55:32.959Z,100.00
2019-05-01T02:58:03.991Z,100.00
2019-05-01T03:02:52.934Z,100.00
2019-05-01T03:05:23.552Z,100.00
2019-05-01T03:07:54.431Z,100.00
2019-05-01T03:10:46.602Z,100.00
2019-05-01T03:13:20.472Z,100.00
2019-05-01T03:15:51.637Z,100.00
2019-05-01T03:18:30.654Z,100.00
2019-05-01T03:21:39.397Z,100.00
2019-05-01T03:24:18.384Z,100.00
2019-05-01T03:26:52.074Z,100.00
2019-05-01T03:29:22.934Z,100.00
2019-05-01T03:32:15.429Z,100.00
2019-05-01T03:34:26.785Z,100.00
2019-05-01T03:36:57.999Z,100.00
2019-05-01T03:39:29.551Z,100.00
2019-05-01T03:42:00.541Z,100.00
2019-05-01T03:44:30.934Z,100.00
2019-05-01T03:47:01.873Z,100.00
2019-05-01T03:49:32.541Z,100.00
2019-05-01T03:52:03.171Z,100.00
2019-05-01T03:54:34.700Z,100.00
2019-05-01T03:57:05.165Z,100.00
2019-05-01T03:59:36.459Z,100.00
2019-05-01T04:02:33.407Z,100.00
2019-05-01T04:04:58.689Z,100.00
2019-05-01T04:07:29.421Z,100.00
2019-05-01T04:09:59.951Z,100.00
2019-05-01T04:12:30.319Z,100.00
2019-05-01T04:15:01.021Z,100.00
2019-05-01T04:17:40.416Z,100.00
2019-05-01T04:20:11.064Z,100.00
2019-05-01T04:22:43.341Z,100.00
2019-05-01T04:25:23.606Z,100.00
2019-05-01T04:27:58.779Z,100.00
2019-05-01T04:30:50.153Z,100.00
2019-05-01T04:33:21.370Z,100.00
2019-05-01T04:36:06.215Z,100.00
2019-05-01T04:38:38.112Z,100.00
2019-05-01T04:41:10.482Z,100.00
2019-05-01T04:43:42.518Z,100.00
2019-05-01T04:46:14.811Z,100.00
2019-05-01T04:48:45.919Z,100.00
2019-05-01T04:51:17.155Z,100.00
2019-05-01T04:53:48.113Z,100.00
2019-05-01T04:56:22.159Z,100.00
2019-05-01T04:58:53.180Z,100.00
2019-05-01T05:03:04.950Z,100.00
2019-05-01T05:05:34.346Z,100.00
2019-05-01T05:08:20.381Z,100.00
2019-05-01T05:10:52.637Z,100.00
2019-05-01T05:13:49.031Z,100.00
2019-05-01T05:16:31.877Z,100.00
2019-05-01T05:19:03.472Z,100.00
2019-05-01T05:21:37.637Z,100.00
2019-05-01T05:24:09.336Z,100.00
2019-05-01T05:26:40.748Z,99.43
2019-05-01T05:29:13.453Z,96.48
2019-05-01T05:31:47.191Z,93.21
2019-05-01T05:34:21.028Z,90.98
2019-05-01T05:36:56.126Z,89.32
2019-05-01T05:39:36.660Z,88.01
2019-05-01T05:42:13.280Z,87.68
2019-05-01T05:44:49.241Z,85.45
2019-05-01T05:47:20.147Z,82.93
2019-05-01T05:49:50.861Z,82.67
2019-05-01T05:52:44.876Z,82.04
2019-05-01T05:55:39.850Z,79.55
2019-05-01T05:58:29.111Z,78.67
2019-05-01T06:01:30.945Z,80.13
2019-05-01T06:04:25.271Z,80.24
2019-05-01T06:07:16.708Z,78.19
2019-05-01T06:10:25.908Z,77.94
2019-05-01T06:13:24.178Z,78.07
2019-05-01T06:16:22.408Z,78.73
2019-05-01T06:19:03.414Z,78.64
2019-05-01T06:21:46.405Z,77.83
2019-05-01T06:24:26.346Z,78.57
2019-05-01T06:26:56.830Z,77.06
2019-05-01T06:29:30.924Z,77.16
2019-05-01T06:32:00.094Z,77.79
2019-05-01T06:34:30.985Z,77.30
2019-05-01T06:37:01.478Z,76.52
2019-05-01T06:39:33.005Z,75.41
2019-05-01T06:42:04.722Z,75.37
2019-05-01T06:44:44.312Z,74.49
2019-05-01T06:47:38.135Z,74.20
2019-05-01T06:50:28.447Z,74.49
2019-05-01T06:52:59.770Z,73.55
2019-05-01T06:55:32.160Z,75.11
2019-05-01T06:58:02.457Z,72.06
2019-05-01T07:02:57.827Z,70.59
2019-05-01T07:05:31.421Z,71.48
2019-05-01T07:08:04.969Z,71.39
2019-05-01T07:10:43.914Z,70.07
2019-05-01T07:13:18.413Z,70.38
2019-05-01T07:15:48.970Z,69.69
2019-05-01T07:18:28.812Z,69.16
2019-05-01T07:21:05.417Z,68.43
2019-05-01T07:23:39.310Z,70.17
2019-05-01T07:26:13.695Z,67.39
2019-05-01T07:28:45.382Z,66.83
2019-05-01T07:31:19.769Z,66.77
2019-05-01T07:33:52.374Z,67.59
2019-05-01T07:36:28.972Z,69.18
2019-05-01T07:39:09.947Z,66.92
2019-05-01T07:41:47.814Z,67.07
2019-05-01T07:44:43.761Z,65.93
2019-05-01T07:47:40.812Z,65.46
2019-05-01T07:51:30.649Z,66.04
2019-05-01T07:53:03.255Z,66.63
2019-05-01T07:56:00.306Z,65.50
2019-05-01T07:58:41.371Z,65.52
2019-05-01T08:01:58.848Z,65.26
2019-05-01T08:04:37.928Z,65.71
2019-05-01T08:07:41.048Z,64.62
2019-05-01T08:11:10.461Z,64.85
2019-05-01T08:14:07.535Z,64.00
2019-05-01T08:16:42.412Z,62.26
2019-05-01T08:19:52.352Z,63.02
2019-05-01T08:23:00.855Z,62.64
2019-05-01T08:25:36.734Z,62.34
2019-05-01T08:28:27.726Z,60.68
2019-05-01T08:31:23.051Z,60.33
2019-05-01T08:34:04.817Z,60.90
2019-05-01T08:36:46.824Z,60.45
2019-05-01T08:39:28.388Z,60.77
2019-05-01T08:42:03.116Z,59.71
2019-05-01T08:44:51.536Z,59.43
2019-05-01T08:47:33.357Z,57.00
2019-05-01T08:50:24.790Z,58.15
2019-05-01T08:53:03.408Z,57.81
2019-05-01T08:55:39.966Z,55.52
2019-05-01T08:58:22.130Z,52.55
2019-05-01T09:03:07.854Z,53.81
2019-05-01T09:05:41.238Z,50.29
2019-05-01T09:08:26.986Z,51.01
2019-05-01T09:11:07.572Z,50.21
2019-05-01T09:13:47.720Z,50.24
2019-05-01T09:16:28.391Z,49.98
2019-05-01T09:19:05.663Z,48.14
2019-05-01T09:21:40.744Z,45.22
2019-05-01T09:24:31.564Z,44.32
2019-05-01T09:27:31.148Z,44.94
2019-05-01T09:30:14.979Z,50.03
2019-05-01T09:32:54.274Z,48.39
2019-05-01T09:35:32.419Z,48.50
2019-05-01T09:38:37.270Z,45.98
2019-05-01T09:41:08.794Z,45.74
2019-05-01T09:43:56.635Z,46.62
2019-05-01T09:46:29.843Z,45.43
2019-05-01T09:49:07.244Z,45.35
2019-05-01T09:52:00.810Z,46.04
2019-05-01T09:54:53.276Z,46.76
2019-05-01T09:57:31.088Z,47.21
2019-05-01T10:00:03.390Z,44.87
2019-05-01T10:02:42.101Z,45.37
2019-05-01T10:05:28.678Z,45.33
2019-05-01T10:08:04.056Z,45.10
2019-05-01T10:10:37.983Z,44.23
2019-05-01T10:13:10.427Z,44.88
2019-05-01T10:15:42.695Z,44.06
2019-05-01T10:18:14.468Z,45.34
2019-05-01T10:20:49.890Z,44.36
2019-05-01T10:23:29.666Z,43.90
2019-05-01T10:26:04.600Z,42.63
2019-05-01T10:28:49.986Z,42.78
2019-05-01T10:31:48.713Z,43.84
2019-05-01T10:34:42.925Z,44.26
2019-05-01T10:37:15.018Z,41.69
2019-05-01T10:39:50.159Z,41.00
2019-05-01T10:42:25.055Z,41.12
2019-05-01T10:44:58.920Z,40.73
2019-05-01T10:47:36.719Z,40.92
2019-05-01T10:50:09.967Z,40.12
2019-05-01T10:52:46.718Z,37.86
2019-05-01T10:55:19.874Z,39.65
2019-05-01T10:57:53.185Z,41.32
2019-05-01T11:03:03.215Z,41.55
2019-05-01T11:05:39.158Z,40.67
2019-05-01T11:08:19.610Z,41.50
2019-05-01T11:10:51.095Z,40.74
2019-05-01T11:13:24.471Z,40.52
2019-05-01T11:15:57.438Z,41.01
2019-05-01T11:18:41.870Z,41.25
2019-05-01T11:21:25.447Z,40.69
2019-05-01T11:24:05.649Z,40.81
2019-05-01T11:26:43.086Z,41.29
2019-05-01T11:29:19.180Z,39.81
2019-05-01T11:32:18.561Z,39.72
2019-05-01T11:35:23.078Z,39.86
2019-05-01T11:38:13.233Z,38.74
2019-05-01T11:40:54.368Z,39.92
2019-05-01T11:43:27.430Z,40.23
2019-05-01T11:46:04.794Z,39.26
2019-05-01T11:48:49.327Z,38.74
2019-05-01T11:51:21.766Z,38.96
2019-05-01T11:53:55.159Z,38.73
2019-05-01T11:56:26.080Z,37.88
2019-05-01T11:59:00.917Z,37.85
2019-05-01T12:01:35.614Z,38.12
2019-05-01T12:04:07.066Z,36.56
2019-05-01T12:06:40.551Z,35.04
2019-05-01T12:09:12.700Z,37.46
2019-05-01T12:11:47.376Z,38.25
2019-05-01T12:14:23.905Z,37.70
2019-05-01T12:17:25.315Z,37.42
2019-05-01T12:19:58.362Z,37.24
2019-05-01T12:22:31.963Z,36.96
2019-05-01T12:25:06.377Z,37.68
2019-05-01T12:27:39.658Z,37.52
2019-05-01T12:30:14.308Z,35.99
2019-05-01T12:32:49.881Z,37.27
2019-05-01T12:35:21.129Z,37.48
2019-05-01T12:37:56.628Z,37.22
2019-05-01T12:40:27.876Z,36.01
2019-05-01T12:42:59.325Z,36.56
2019-05-01T12:45:31.885Z,38.15
2019-05-01T12:48:10.608Z,37.31
2019-05-01T12:50:42.661Z,36.93
2019-05-01T12:53:27.268Z,37.00
2019-05-01T12:56:18.478Z,37.25
2019-05-01T12:58:52.429Z,37.13
2019-05-01T13:03:01.543Z,38.46
2019-05-01T13:05:33.037Z,37.74
2019-05-01T13:08:04.074Z,37.97
2019-05-01T13:10:34.890Z,38.55
2019-05-01T13:13:10.866Z,38.13
2019-05-01T13:15:41.206Z,38.96
2019-05-01T13:18:12.394Z,38.23
2019-05-01T13:20:44.310Z,37.77
2019-05-01T13:23:15.994Z,37.81
2019-05-01T13:25:49.885Z,37.58
2019-05-01T13:28:46.292Z,38.41
2019-05-01T13:31:30.572Z,37.71
2019-05-01T13:34:01.625Z,37.84
2019-05-01T13:36:32.445Z,38.69
2019-05-01T13:39:03.957Z,37.85
2019-05-01T13:41:35.811Z,38.33
2019-05-01T13:44:08.284Z,36.62
2019-05-01T13:46:43.717Z,37.16
2019-05-01T13:49:18.654Z,38.20
2019-05-01T13:51:51.701Z,38.32
2019-05-01T13:54:23.266Z,38.61
2019-05-01T13:56:54.396Z,38.79
2019-05-01T13:59:25.069Z,37.97
2019-05-01T14:02:00.870Z,37.44
2019-05-01T14:04:32.402Z,37.15
2019-05-01T14:07:15.845Z,37.00
2019-05-01T14:09:40.792Z,36.25
2019-05-01T14:12:12.624Z,36.11
2019-05-01T14:14:47.368Z,36.94
2019-05-01T14:17:19.715Z,36.59
2019-05-01T14:20:01.503Z,36.39
2019-05-01T14:22:58.051Z,36.22
2019-05-01T14:25:48.697Z,36.67
2019-05-01T14:28:22.163Z,37.66
2019-05-01T14:30:53.198Z,36.18
2019-05-01T14:33:24.429Z,36.96
2019-05-01T14:35:56.368Z,38.21
2019-05-01T14:38:26.852Z,38.22
2019-05-01T14:41:00.126Z,36.74
2019-05-01T14:43:34.649Z,37.73
2019-05-01T14:46:07.195Z,37.52
2019-05-01T14:48:38.925Z,37.24
2019-05-01T14:51:09.347Z,37.16
2019-05-01T14:53:42.602Z,36.96
2019-05-01T14:56:15.308Z,35.49
2019-05-01T14:58:48.735Z,36.40
2019-05-01T15:02:53.107Z,35.88
2019-05-01T15:05:27.224Z,35.47
2019-05-01T15:07:58.966Z,35.62
2019-05-01T15:10:41.837Z,34.76
2019-05-01T15:13:25.443Z,35.99
2019-05-01T15:16:15.206Z,35.27
2019-05-01T15:18:59.522Z,35.79
2019-05-01T15:21:33.898Z,35.13
2019-05-01T15:24:08.673Z,35.44
2019-05-01T15:26:47.104Z,35.07
2019-05-01T15:29:23.864Z,35.57
2019-05-01T15:31:58.450Z,35.46
2019-05-01T15:34:29.389Z,35.34
2019-05-01T15:37:00.579Z,35.15
2019-05-01T15:39:40.041Z,35.00
2019-05-01T15:42:30.028Z,35.41
2019-05-01T15:45:02.382Z,35.34
2019-05-01T15:47:35.087Z,34.83
2019-05-01T15:50:11.345Z,35.18
2019-05-01T15:52:43.223Z,35.32
2019-05-01T15:55:17.433Z,35.57
2019-05-01T15:57:52.073Z,35.71
2019-05-01T16:00:23.730Z,36.72
2019-05-01T16:02:55.523Z,35.67
2019-05-01T16:05:27.554Z,35.86
2019-05-01T16:08:09.481Z,36.60
2019-05-01T16:10:37.362Z,35.49
2019-05-01T16:13:09.022Z,36.60
2019-05-01T16:15:42.906Z,36.23
2019-05-01T16:18:14.227Z,37.38
2019-05-01T16:20:48.552Z,37.03
2019-05-01T16:23:20.882Z,37.08
2019-05-01T16:25:52.406Z,37.61
2019-05-01T16:28:23.068Z,38.11
2019-05-01T16:30:54.210Z,37.41
2019-05-01T16:33:24.743Z,38.16
2019-05-01T16:35:55.608Z,38.44
2019-05-01T16:38:38.580Z,37.96
2019-05-01T16:41:12.360Z,37.70
2019-05-01T16:43:43.893Z,38.19
2019-05-01T16:46:14.726Z,36.70
2019-05-01T16:48:45.485Z,38.63
2019-05-01T16:51:19.729Z,38.13
2019-05-01T16:53:51.948Z,37.43
2019-05-01T16:56:23.028Z,37.70
2019-05-01T16:58:57.159Z,37.68
2019-05-01T17:03:09.975Z,34.32
2019-05-01T17:05:57.758Z,33.42
2019-05-01T17:08:36.981Z,32.99
2019-05-01T17:11:10.573Z,31.98
2019-05-01T17:13:41.269Z,32.52
2019-05-01T17:16:12.099Z,31.52
2019-05-01T17:18:42.532Z,31.91
2019-05-01T17:21:12.995Z,30.70
2019-05-01T17:23:43.409Z,31.14
2019-05-01T17:26:14.626Z,31.70
2019-05-01T17:28:45.080Z,31.62
2019-05-01T17:31:15.827Z,30.56
2019-05-01T17:33:46.481Z,30.82
2019-05-01T17:36:17.004Z,31.33
2019-05-01T17:38:49.613Z,31.62
2019-05-01T17:41:22.773Z,32.02
2019-05-01T17:43:52.172Z,32.96
2019-05-01T17:46:22.808Z,32.95
2019-05-01T17:48:53.615Z,34.65
2019-05-01T17:51:24.236Z,36.60
2019-05-01T17:53:57.782Z,37.63
2019-05-01T17:56:30.929Z,38.22
2019-05-01T17:59:01.589Z,39.04
2019-05-01T18:01:51.220Z,39.33
2019-05-01T18:04:31.215Z,40.26
2019-05-01T18:07:01.914Z,40.62
2019-05-01T18:09:32.342Z,40.72
2019-05-01T18:12:05.834Z,40.55
2019-05-01T18:14:36.269Z,40.71
2019-05-01T18:17:09.799Z,42.04
2019-05-01T18:19:40.331Z,42.43
2019-05-01T18:22:22.310Z,42.72
2019-05-01T18:25:04.691Z,43.28
2019-05-01T18:27:54.456Z,43.89
2019-05-01T18:30:29.501Z,43.94
2019-05-01T18:33:00.002Z,44.70
2019-05-01T18:35:30.250Z,45.58
2019-05-01T18:38:13.042Z,46.22
2019-05-01T18:40:49.145Z,47.03
2019-05-01T18:43:19.711Z,51.58
2019-05-01T18:45:57.450Z,53.47
2019-05-01T18:48:28.148Z,54.80
2019-05-01T18:50:59.147Z,55.58
2019-05-01T18:53:29.489Z,55.82
2019-05-01T18:56:01.431Z,55.03
2019-05-01T18:58:36.672Z,55.83
2019-05-01T19:02:53.102Z,55.58
2019-05-01T19:05:23.591Z,56.40
2019-05-01T19:07:54.148Z,56.83
2019-05-01T19:10:24.673Z,57.93
2019-05-01T19:12:55.519Z,57.60
2019-05-01T19:15:29.087Z,58.34
2019-05-01T19:18:00.819Z,58.65
2019-05-01T19:20:36.308Z,59.19
2019-05-01T19:23:07.160Z,59.70
2019-05-01T19:25:37.456Z,60.10
2019-05-01T19:28:09.713Z,60.00
2019-05-01T19:30:42.723Z,59.89
2019-05-01T19:33:13.106Z,60.96
2019-05-01T19:35:43.789Z,61.31
2019-05-01T19:38:14.678Z,61.27
2019-05-01T19:40:45.217Z,61.27
2019-05-01T19:43:15.795Z,61.28
2019-05-01T19:45:46.439Z,60.07
2019-05-01T19:48:17.141Z,60.27
2019-05-01T19:50:48.627Z,62.21
2019-05-01T19:53:19.915Z,62.41
2019-05-01T19:55:52.315Z,62.93
2019-05-01T19:58:22.801Z,62.28
2019-05-01T20:00:59.215Z,64.10
2019-05-01T20:03:30.618Z,64.37
2019-05-01T20:06:05.243Z,65.09
2019-05-01T20:08:34.324Z,64.97
2019-05-01T20:11:05.108Z,65.06
2019-05-01T20:13:35.495Z,65.58
2019-05-01T20:16:09.471Z,66.42
2019-05-01T20:18:40.413Z,67.09
2019-05-01T20:21:11.243Z,68.08
2019-05-01T20:23:45.143Z,68.54
2019-05-01T20:26:15.943Z,68.93
2019-05-01T20:28:47.130Z,69.27
2019-05-01T20:31:18.478Z,69.19
2019-05-01T20:33:49.705Z,69.07
2019-05-01T20:36:20.147Z,70.04
2019-05-01T20:38:50.662Z,69.71
2019-05-01T20:41:21.173Z,69.51
2019-05-01T20:43:51.711Z,69.57
2019-05-01T20:46:26.231Z,69.16
2019-05-01T20:48:55.913Z,70.39
2019-05-01T20:51:26.608Z,70.20
2019-05-01T20:53:57.070Z,69.79
2019-05-01T20:56:35.731Z,70.34
2019-05-01T20:59:06.167Z,70.83
2019-05-01T21:02:55.988Z,70.50
2019-05-01T21:05:34.301Z,71.66
2019-05-01T21:08:14.399Z,71.39
2019-05-01T21:11:05.906Z,72.26
2019-05-01T21:13:34.638Z,72.37
2019-05-01T21:16:06.494Z,72.27
2019-05-01T21:18:36.990Z,72.87
2019-05-01T21:21:11.542Z,72.92
2019-05-01T21:23:48.180Z,73.50
2019-05-01T21:26:17.294Z,73.67
2019-05-01T21:28:48.173Z,73.64
2019-05-01T21:31:18.459Z,73.69
2019-05-01T21:33:50.518Z,73.54
2019-05-01T21:36:23.179Z,73.79
2019-05-01T21:38:53.293Z,74.00
2019-05-01T21:41:24.002Z,75.20
2019-05-01T21:43:54.742Z,74.38
2019-05-01T21:46:25.330Z,73.51
2019-05-01T21:48:56.208Z,72.54
2019-05-01T21:51:26.539Z,73.19
2019-05-01T21:53:57.459Z,74.60
2019-05-01T21:56:28.311Z,74.79
2019-05-01T21:59:06.654Z,75.52
2019-05-01T22:01:34.922Z,73.58
2019-05-01T22:04:06.166Z,73.03
2019-05-01T22:06:36.747Z,73.30
2019-05-01T22:09:15.276Z,72.83
2019-05-01T22:11:47.271Z,73.20
2019-05-01T22:14:42.160Z,72.94
2019-05-01T22:17:20.137Z,73.59
2019-05-01T22:19:50.600Z,73.72
2019-05-01T22:22:32.791Z,73.33
2019-05-01T22:25:13.067Z,73.31
2019-05-01T22:27:46.872Z,73.45
2019-05-01T22:30:25.566Z,74.25
2019-05-01T22:32:56.692Z,74.21
2019-05-01T22:35:29.840Z,75.17
2019-05-01T22:38:00.184Z,76.32
2019-05-01T22:40:42.356Z,76.04
2019-05-01T22:43:12.874Z,76.04
2019-05-01T22:45:43.482Z,76.36
2019-05-01T22:48:14.035Z,76.94
2019-05-01T22:50:44.394Z,76.85
2019-05-01T22:53:14.825Z,76.61
2019-05-01T22:55:47.626Z,76.77
2019-05-01T22:58:18.043Z,77.37
2019-05-01T23:03:05.345Z,77.19
2019-05-01T23:05:34.550Z,77.03
2019-05-01T23:08:05.071Z,77.56
2019-05-01T23:10:35.692Z,78.57
2019-05-01T23:13:06.586Z,78.35
2019-05-01T23:15:37.312Z,78.01
2019-05-01T23:18:10.652Z,77.91
2019-05-01T23:20:46.151Z,78.74
2019-05-01T23:23:16.708Z,79.06
2019-05-01T23:25:47.148Z,79.80
2019-05-01T23:28:17.635Z,80.38
2019-05-01T23:30:48.061Z,80.12
2019-05-01T23:33:21.384Z,80.70
2019-05-01T23:35:54.490Z,81.17
2019-05-01T23:38:25.230Z,81.36
2019-05-01T23:40:55.631Z,81.75
2019-05-01T23:43:27.764Z,81.94
2019-05-01T23:45:58.287Z,81.50
2019-05-01T23:48:29.100Z,81.78
2019-05-01T23:50:59.444Z,81.63
2019-05-01T23:53:30.632Z,82.13
2019-05-01T23:56:02.084Z,83.04
2019-05-01T23:58:32.506Z,83.38
